createdAt,value
2019-01-29T00:00:46.588Z,1008.69
2019-01-29T00:01:47.154Z,1008.7
2019-01-29T00:02:48.412Z,1008.72
2019-01-29T00:03:46.613Z,1008.73
2019-01-29T00:04:49.277Z,1008.68
2019-01-29T00:05:46.648Z,1008.77
2019-01-29T00:06:46.600Z,1008.75
2019-01-29T00:07:46.680Z,1008.77
2019-01-29T00:08:46.623Z,1008.78
2019-01-29T00:09:46.612Z,1008.8
2019-01-29T00:10:46.707Z,1008.8
2019-01-29T00:11:46.669Z,1008.83
2019-01-29T00:12:46.596Z,1008.81
2019-01-29T00:13:46.838Z,1008.84
2019-01-29T00:14:47.242Z,1008.85
2019-01-29T00:15:46.563Z,1008.83
2019-01-29T00:16:46.750Z,1008.89
2019-01-29T00:17:46.706Z,1008.88
2019-01-29T00:18:46.658Z,1008.92
2019-01-29T00:19:46.601Z,1008.88
2019-01-29T00:20:46.673Z,1008.9
2019-01-29T00:21:46.680Z,1008.9
2019-01-29T00:22:46.797Z,1008.93
2019-01-29T00:23:46.434Z,1008.91
2019-01-29T00:24:46.740Z,1008.9
2019-01-29T00:25:47.327Z,1008.88
2019-01-29T00:26:46.930Z,1008.92
2019-01-29T00:27:46.825Z,1008.94
2019-01-29T00:28:46.581Z,1008.91
2019-01-29T00:29:46.555Z,1008.91
2019-01-29T00:30:46.600Z,1008.93
2019-01-29T00:31:46.590Z,1008.94
2019-01-29T00:32:46.645Z,1008.94
2019-01-29T00:33:48.405Z,1008.93
2019-01-29T00:34:46.637Z,1008.98
2019-01-29T00:35:47.668Z,1008.95
2019-01-29T00:36:46.456Z,1008.99
2019-01-29T00:37:47.339Z,1009
2019-01-29T00:38:47.101Z,1008.98
2019-01-29T00:39:46.507Z,1009.01
2019-01-29T00:40:46.507Z,1009.02
2019-01-29T00:41:46.680Z,1009.03
2019-01-29T00:42:46.351Z,1009.02
2019-01-29T00:43:46.951Z,1009.07
2019-01-29T00:44:46.668Z,1009.11
2019-01-29T00:45:46.677Z,1009.1
2019-01-29T00:46:46.438Z,1009.13
2019-01-29T00:47:46.859Z,1009.14
2019-01-29T00:48:46.887Z,1009.2
2019-01-29T00:49:46.626Z,1009.2
2019-01-29T00:50:46.815Z,1009.18
2019-01-29T00:51:46.670Z,1009.2
2019-01-29T00:52:46.383Z,1009.21
2019-01-29T00:53:47.003Z,1009.23
2019-01-29T00:54:47.011Z,1009.24
2019-01-29T00:55:46.936Z,1009.24
2019-01-29T00:56:46.634Z,1009.23
2019-01-29T00:57:46.454Z,1009.19
2019-01-29T00:58:46.719Z,1009.25
2019-01-29T00:59:47.068Z,1009.22
2019-01-29T01:00:46.551Z,1009.23
2019-01-29T01:01:46.775Z,1009.22
2019-01-29T01:02:46.640Z,1009.27
2019-01-29T01:03:46.441Z,1009.3
2019-01-29T01:04:46.712Z,1009.3
2019-01-29T01:05:46.900Z,1009.34
2019-01-29T01:06:46.809Z,1009.32
2019-01-29T01:07:46.593Z,1009.34
2019-01-29T01:08:46.611Z,1009.32
2019-01-29T01:09:46.833Z,1009.35
2019-01-29T01:10:46.936Z,1009.36
2019-01-29T01:11:46.924Z,1009.32
2019-01-29T01:12:46.750Z,1009.39
2019-01-29T01:13:46.932Z,1009.4
2019-01-29T01:14:46.364Z,1009.42
2019-01-29T01:15:46.870Z,1009.45
2019-01-29T01:16:46.877Z,1009.47
2019-01-29T01:17:46.377Z,1009.55
2019-01-29T01:18:46.721Z,1009.53
2019-01-29T01:19:47.011Z,1009.57
2019-01-29T01:20:46.427Z,1009.57
2019-01-29T01:21:46.841Z,1009.59
2019-01-29T01:22:51.627Z,1009.6
2019-01-29T01:23:46.592Z,1009.59
2019-01-29T01:24:46.844Z,1009.62
2019-01-29T01:25:46.610Z,1009.67
2019-01-29T01:26:46.856Z,1009.67
2019-01-29T01:27:46.584Z,1009.71
2019-01-29T01:28:46.762Z,1009.71
2019-01-29T01:29:46.640Z,1009.72
2019-01-29T01:30:46.655Z,1009.73
2019-01-29T01:31:46.433Z,1009.74
2019-01-29T01:32:46.720Z,1009.79
2019-01-29T01:33:46.441Z,1009.76
2019-01-29T01:34:46.747Z,1009.8
2019-01-29T01:35:46.608Z,1009.82
2019-01-29T01:36:47.015Z,1009.82
2019-01-29T01:37:46.506Z,1009.84
2019-01-29T01:38:46.495Z,1009.83
2019-01-29T01:39:46.502Z,1009.84
2019-01-29T01:40:46.550Z,1009.82
2019-01-29T01:41:46.956Z,1009.84
2019-01-29T01:42:46.373Z,1009.85
2019-01-29T01:43:46.479Z,1009.88
2019-01-29T01:44:46.878Z,1009.89
2019-01-29T01:45:46.407Z,1009.85
2019-01-29T01:46:46.571Z,1009.9
2019-01-29T01:47:46.669Z,1009.95
2019-01-29T01:48:46.399Z,1009.94
2019-01-29T01:49:46.720Z,1009.93
2019-01-29T01:50:46.389Z,1009.96
2019-01-29T01:51:46.606Z,1009.98
2019-01-29T01:52:46.836Z,1009.98
2019-01-29T01:53:48.482Z,1009.97
2019-01-29T01:54:46.642Z,1009.97
2019-01-29T01:55:46.641Z,1010.01
2019-01-29T01:56:46.656Z,1010
2019-01-29T01:57:46.942Z,1010
2019-01-29T01:58:46.317Z,1009.99
2019-01-29T01:59:46.704Z,1010.01
2019-01-29T02:00:46.383Z,1010.03
2019-01-29T02:01:46.517Z,1010.03
2019-01-29T02:02:46.810Z,1010.02
2019-01-29T02:03:46.820Z,1010.01
2019-01-29T02:04:46.599Z,1010.04
2019-01-29T02:05:46.815Z,1010
2019-01-29T02:06:46.934Z,1010.04
2019-01-29T02:07:46.742Z,1010.04
2019-01-29T02:08:46.578Z,1010.02
2019-01-29T02:09:46.772Z,1010
2019-01-29T02:10:46.424Z,1010.01
2019-01-29T02:11:47.077Z,1009.99
2019-01-29T02:12:46.415Z,1010.01
2019-01-29T02:13:46.533Z,1010.01
2019-01-29T02:14:46.692Z,1010
2019-01-29T02:15:46.869Z,1010.03
2019-01-29T02:16:47.282Z,1010.07
2019-01-29T02:17:46.306Z,1010.06
2019-01-29T02:18:46.464Z,1010.01
2019-01-29T02:19:47.855Z,1010.03
2019-01-29T02:20:46.340Z,1010.03
2019-01-29T02:21:46.925Z,1010.02
2019-01-29T02:22:46.456Z,1010
2019-01-29T02:23:46.326Z,1010.05
2019-01-29T02:24:47.090Z,1010.03
2019-01-29T02:25:46.683Z,1010.02
2019-01-29T02:26:46.504Z,1010.01
2019-01-29T02:27:46.797Z,1010.01
2019-01-29T02:28:49.255Z,1010
2019-01-29T02:29:46.660Z,1009.99
2019-01-29T02:30:46.601Z,1009.98
2019-01-29T02:31:46.360Z,1009.95
2019-01-29T02:32:46.852Z,1009.96
2019-01-29T02:33:46.569Z,1009.97
2019-01-29T02:34:46.630Z,1009.98
2019-01-29T02:35:46.597Z,1009.99
2019-01-29T02:36:46.709Z,1010.01
2019-01-29T02:37:46.559Z,1010.02
2019-01-29T02:38:46.862Z,1010.03
2019-01-29T02:39:46.508Z,1010.03
2019-01-29T02:40:46.568Z,1010.03
2019-01-29T02:41:46.543Z,1010.04
2019-01-29T02:42:46.534Z,1010.03
2019-01-29T02:43:46.916Z,1010.02
2019-01-29T02:44:46.463Z,1010.1
2019-01-29T02:45:46.435Z,1010.1
2019-01-29T02:46:47.959Z,1010.11
2019-01-29T02:47:46.671Z,1010.11
2019-01-29T02:48:46.499Z,1010.16
2019-01-29T02:49:47.042Z,1010.16
2019-01-29T02:50:46.308Z,1010.14
2019-01-29T02:51:46.728Z,1010.14
2019-01-29T02:52:46.477Z,1010.2
2019-01-29T02:53:46.371Z,1010.15
2019-01-29T02:54:46.537Z,1010.16
2019-01-29T02:55:47.479Z,1010.16
2019-01-29T02:56:46.495Z,1010.15
2019-01-29T02:57:46.783Z,1010.13
2019-01-29T02:58:47.023Z,1010.15
2019-01-29T02:59:46.473Z,1010.19
2019-01-29T03:00:46.914Z,1010.15
2019-01-29T03:01:46.588Z,1010.16
2019-01-29T03:02:46.730Z,1010.12
2019-01-29T03:03:46.940Z,1010.15
2019-01-29T03:04:46.402Z,1010.18
2019-01-29T03:05:46.634Z,1010.18
2019-01-29T03:06:47.075Z,1010.2
2019-01-29T03:07:46.906Z,1010.22
2019-01-29T03:08:46.741Z,1010.19
2019-01-29T03:09:46.438Z,1010.22
2019-01-29T03:10:46.454Z,1010.23
2019-01-29T03:11:46.819Z,1010.18
2019-01-29T03:12:46.646Z,1010.19
2019-01-29T03:13:46.836Z,1010.16
2019-01-29T03:14:46.592Z,1010.19
2019-01-29T03:15:47.133Z,1010.18
2019-01-29T03:16:46.513Z,1010.17
2019-01-29T03:17:46.804Z,1010.16
2019-01-29T03:18:47.263Z,1010.14
2019-01-29T03:19:46.435Z,1010.19
2019-01-29T03:20:46.567Z,1010.18
2019-01-29T03:21:46.455Z,1010.19
2019-01-29T03:22:46.584Z,1010.2
2019-01-29T03:23:46.994Z,1010.21
2019-01-29T03:24:46.674Z,1010.22
2019-01-29T03:25:46.769Z,1010.21
2019-01-29T03:26:46.660Z,1010.23
2019-01-29T03:27:46.285Z,1010.27
2019-01-29T03:28:46.702Z,1010.26
2019-01-29T03:29:46.420Z,1010.24
2019-01-29T03:30:46.738Z,1010.28
2019-01-29T03:31:46.837Z,1010.32
2019-01-29T03:32:46.553Z,1010.3
2019-01-29T03:33:46.813Z,1010.31
2019-01-29T03:34:46.669Z,1010.31
2019-01-29T03:35:46.646Z,1010.35
2019-01-29T03:36:46.680Z,1010.37
2019-01-29T03:37:46.377Z,1010.38
2019-01-29T03:38:46.875Z,1010.38
2019-01-29T03:39:46.654Z,1010.4
2019-01-29T03:40:46.584Z,1010.41
2019-01-29T03:41:46.613Z,1010.43
2019-01-29T03:42:46.639Z,1010.43
2019-01-29T03:43:48.075Z,1010.41
2019-01-29T03:44:46.517Z,1010.47
2019-01-29T03:45:46.632Z,1010.47
2019-01-29T03:46:46.412Z,1010.47
2019-01-29T03:47:46.641Z,1010.51
2019-01-29T03:48:46.376Z,1010.47
2019-01-29T03:49:46.404Z,1010.49
2019-01-29T03:50:46.569Z,1010.48
2019-01-29T03:51:46.254Z,1010.46
2019-01-29T03:52:46.477Z,1010.45
2019-01-29T03:53:48.396Z,1010.47
2019-01-29T03:54:46.573Z,1010.47
2019-01-29T03:55:46.515Z,1010.43
2019-01-29T03:56:46.587Z,1010.48
2019-01-29T03:57:46.490Z,1010.47
2019-01-29T03:58:48.352Z,1010.49
2019-01-29T03:59:46.396Z,1010.52
2019-01-29T04:00:46.335Z,1010.53
2019-01-29T04:01:46.443Z,1010.55
2019-01-29T04:02:46.341Z,1010.58
2019-01-29T04:03:47.472Z,1010.61
2019-01-29T04:04:46.770Z,1010.62
2019-01-29T04:05:46.307Z,1010.61
2019-01-29T04:06:46.647Z,1010.64
2019-01-29T04:07:46.742Z,1010.63
2019-01-29T04:08:46.808Z,1010.64
2019-01-29T04:09:46.491Z,1010.61
2019-01-29T04:10:46.569Z,1010.64
2019-01-29T04:11:46.803Z,1010.64
2019-01-29T04:12:46.705Z,1010.71
2019-01-29T04:13:46.913Z,1010.72
2019-01-29T04:14:46.727Z,1010.79
2019-01-29T04:15:46.741Z,1010.78
2019-01-29T04:16:46.652Z,1010.81
2019-01-29T04:17:46.633Z,1010.81
2019-01-29T04:18:46.564Z,1010.82
2019-01-29T04:19:46.673Z,1010.8
2019-01-29T04:20:46.649Z,1010.82
2019-01-29T04:21:46.855Z,1010.8
2019-01-29T04:22:46.384Z,1010.82
2019-01-29T04:23:48.230Z,1010.83
2019-01-29T04:24:46.818Z,1010.83
2019-01-29T04:25:46.334Z,1010.82
2019-01-29T04:26:46.653Z,1010.86
2019-01-29T04:27:46.644Z,1010.83
2019-01-29T04:28:46.832Z,1010.84
2019-01-29T04:29:46.580Z,1010.84
2019-01-29T04:30:47.242Z,1010.86
2019-01-29T04:31:46.374Z,1010.85
2019-01-29T04:32:46.720Z,1010.87
2019-01-29T04:33:46.765Z,1010.88
2019-01-29T04:34:47.178Z,1010.9
2019-01-29T04:35:47.545Z,1010.87
2019-01-29T04:36:46.773Z,1010.89
2019-01-29T04:37:46.914Z,1010.91
2019-01-29T04:38:46.472Z,1010.95
2019-01-29T04:39:46.790Z,1010.96
2019-01-29T04:40:46.902Z,1010.99
2019-01-29T04:41:46.331Z,1010.98
2019-01-29T04:42:46.433Z,1010.96
2019-01-29T04:43:46.922Z,1010.99
2019-01-29T04:44:46.356Z,1010.95
2019-01-29T04:45:46.444Z,1010.98
2019-01-29T04:46:46.642Z,1010.97
2019-01-29T04:47:46.376Z,1010.97
2019-01-29T04:48:46.665Z,1010.96
2019-01-29T04:49:46.695Z,1010.98
2019-01-29T04:50:46.450Z,1010.96
2019-01-29T04:51:46.513Z,1011
2019-01-29T04:52:46.688Z,1011
2019-01-29T04:53:46.717Z,1010.97
2019-01-29T04:54:46.713Z,1010.99
2019-01-29T04:55:46.799Z,1010.95
2019-01-29T04:56:46.635Z,1010.96
2019-01-29T04:57:47.092Z,1010.97
2019-01-29T04:58:46.820Z,1010.94
2019-01-29T04:59:46.400Z,1010.95
2019-01-29T05:00:47.866Z,1010.91
2019-01-29T05:01:46.429Z,1010.95
2019-01-29T05:02:46.791Z,1010.95
2019-01-29T05:03:46.681Z,1010.91
2019-01-29T05:04:46.433Z,1010.92
2019-01-29T05:05:46.435Z,1010.94
2019-01-29T05:06:46.297Z,1010.95
2019-01-29T05:07:46.553Z,1010.96
2019-01-29T05:08:46.817Z,1010.93
2019-01-29T05:09:46.603Z,1010.92
2019-01-29T05:10:46.649Z,1010.9
2019-01-29T05:11:46.377Z,1010.91
2019-01-29T05:12:46.439Z,1010.91
2019-01-29T05:13:46.652Z,1010.91
2019-01-29T05:14:46.624Z,1010.93
2019-01-29T05:15:46.547Z,1010.93
2019-01-29T05:16:46.636Z,1010.88
2019-01-29T05:17:46.413Z,1010.89
2019-01-29T05:18:46.288Z,1010.9
2019-01-29T05:19:46.633Z,1010.9
2019-01-29T05:20:46.497Z,1010.9
2019-01-29T05:21:46.692Z,1010.91
2019-01-29T05:22:46.713Z,1010.93
2019-01-29T05:23:46.433Z,1010.92
2019-01-29T05:24:46.763Z,1010.94
2019-01-29T05:25:46.342Z,1010.92
2019-01-29T05:26:46.639Z,1010.94
2019-01-29T05:27:46.785Z,1010.91
2019-01-29T05:28:46.456Z,1010.92
2019-01-29T05:29:46.377Z,1010.92
2019-01-29T05:30:46.766Z,1010.94
2019-01-29T05:31:46.177Z,1010.9
2019-01-29T05:32:46.717Z,1010.92
2019-01-29T05:33:46.778Z,1010.95
2019-01-29T05:34:46.399Z,1010.89
2019-01-29T05:35:46.418Z,1010.93
2019-01-29T05:36:46.476Z,1010.91
2019-01-29T05:37:46.285Z,1010.91
2019-01-29T05:38:46.840Z,1010.91
2019-01-29T05:39:46.633Z,1010.89
2019-01-29T05:40:46.831Z,1010.9
2019-01-29T05:41:46.675Z,1010.9
2019-01-29T05:42:46.718Z,1010.93
2019-01-29T05:43:47.048Z,1010.93
2019-01-29T05:44:46.843Z,1010.91
2019-01-29T05:45:47.158Z,1010.91
2019-01-29T05:46:47.384Z,1010.92
2019-01-29T05:47:47.493Z,1010.94
2019-01-29T05:48:46.644Z,1010.98
2019-01-29T05:49:46.546Z,1010.96
2019-01-29T05:50:46.423Z,1010.97
2019-01-29T05:51:46.975Z,1010.97
2019-01-29T05:52:48.442Z,1010.95
2019-01-29T05:53:46.773Z,1010.96
2019-01-29T05:54:46.390Z,1010.96
2019-01-29T05:55:47.082Z,1010.92
2019-01-29T05:56:47.695Z,1010.91
2019-01-29T05:57:47.025Z,1010.91
2019-01-29T05:58:47.943Z,1010.89
2019-01-29T05:59:46.744Z,1010.87
2019-01-29T06:00:48.428Z,1010.9
2019-01-29T06:01:46.946Z,1010.93
2019-01-29T06:02:48.949Z,1010.9
2019-01-29T06:03:46.867Z,1010.91
2019-01-29T06:04:46.683Z,1010.96
2019-01-29T06:05:46.473Z,1010.94
2019-01-29T06:06:48.408Z,1010.94
2019-01-29T06:07:47.100Z,1010.94
2019-01-29T06:08:46.390Z,1010.99
2019-01-29T06:09:46.589Z,1010.97
2019-01-29T06:10:46.693Z,1010.99
2019-01-29T06:11:46.368Z,1010.98
2019-01-29T06:12:46.717Z,1010.96
2019-01-29T06:13:46.615Z,1010.97
2019-01-29T06:14:47.490Z,1011.01
2019-01-29T06:15:46.558Z,1010.98
2019-01-29T06:16:46.323Z,1011.01
2019-01-29T06:17:46.763Z,1010.99
2019-01-29T06:18:46.555Z,1011.03
2019-01-29T06:19:46.410Z,1011.03
2019-01-29T06:20:46.788Z,1011
2019-01-29T06:21:46.523Z,1011.02
2019-01-29T06:22:46.551Z,1011.02
2019-01-29T06:23:46.734Z,1011.06
2019-01-29T06:24:47.197Z,1011.05
2019-01-29T06:25:47.166Z,1011.06
2019-01-29T06:26:46.354Z,1011.12
2019-01-29T06:27:46.268Z,1011.09
2019-01-29T06:28:46.409Z,1011.14
2019-01-29T06:29:46.703Z,1011.18
2019-01-29T06:30:46.658Z,1011.17
2019-01-29T06:31:46.650Z,1011.19
2019-01-29T06:32:46.756Z,1011.21
2019-01-29T06:33:46.842Z,1011.23
2019-01-29T06:34:46.679Z,1011.2
2019-01-29T06:35:46.361Z,1011.15
2019-01-29T06:36:46.684Z,1011.16
2019-01-29T06:37:46.357Z,1011.18
2019-01-29T06:38:46.705Z,1011.19
2019-01-29T06:39:46.908Z,1011.14
2019-01-29T06:40:46.708Z,1011.15
2019-01-29T06:41:46.731Z,1011.16
2019-01-29T06:42:46.632Z,1011.12
2019-01-29T06:43:46.416Z,1011.11
2019-01-29T06:44:46.254Z,1011.14
2019-01-29T06:45:46.366Z,1011.15
2019-01-29T06:46:47.051Z,1011.15
2019-01-29T06:47:46.546Z,1011.16
2019-01-29T06:48:46.252Z,1011.17
2019-01-29T06:49:46.471Z,1011.14
2019-01-29T06:50:47.344Z,1011.17
2019-01-29T06:51:46.290Z,1011.18
2019-01-29T06:52:46.407Z,1011.16
2019-01-29T06:53:46.704Z,1011.17
2019-01-29T06:54:46.280Z,1011.14
2019-01-29T06:55:46.739Z,1011.16
2019-01-29T06:56:47.349Z,1011.18
2019-01-29T06:57:56.301Z,1011.17
2019-01-29T06:58:46.591Z,1011.21
2019-01-29T06:59:46.371Z,1011.19
2019-01-29T07:00:46.431Z,1011.22
2019-01-29T07:01:46.257Z,1011.19
2019-01-29T07:02:46.326Z,1011.23
2019-01-29T07:03:46.708Z,1011.24
2019-01-29T07:04:47.192Z,1011.24
2019-01-29T07:05:46.507Z,1011.24
2019-01-29T07:06:46.808Z,1011.25
2019-01-29T07:07:46.303Z,1011.25
2019-01-29T07:08:46.399Z,1011.23
2019-01-29T07:09:46.339Z,1011.25
2019-01-29T07:10:47.048Z,1011.22
2019-01-29T07:11:46.766Z,1011.26
2019-01-29T07:12:46.839Z,1011.28
2019-01-29T07:13:46.749Z,1011.24
2019-01-29T07:14:46.398Z,1011.26
2019-01-29T07:15:46.402Z,1011.25
2019-01-29T07:16:46.392Z,1011.26
2019-01-29T07:17:46.508Z,1011.25
2019-01-29T07:18:46.678Z,1011.25
2019-01-29T07:19:46.297Z,1011.24
2019-01-29T07:20:47.013Z,1011.2
2019-01-29T07:21:46.375Z,1011.23
2019-01-29T07:22:46.708Z,1011.26
2019-01-29T07:23:46.540Z,1011.3
2019-01-29T07:24:46.265Z,1011.28
2019-01-29T07:25:46.561Z,1011.29
2019-01-29T07:26:46.677Z,1011.32
2019-01-29T07:27:46.648Z,1011.3
2019-01-29T07:28:46.974Z,1011.33
2019-01-29T07:29:46.471Z,1011.33
2019-01-29T07:30:46.364Z,1011.33
2019-01-29T07:31:46.770Z,1011.32
2019-01-29T07:32:46.579Z,1011.34
2019-01-29T07:33:46.223Z,1011.31
2019-01-29T07:34:46.729Z,1011.32
2019-01-29T07:35:48.387Z,1011.36
2019-01-29T07:36:46.884Z,1011.36
2019-01-29T07:37:46.408Z,1011.39
2019-01-29T07:38:46.837Z,1011.39
2019-01-29T07:39:46.400Z,1011.41
2019-01-29T07:40:46.730Z,1011.38
2019-01-29T07:41:46.745Z,1011.36
2019-01-29T07:42:46.405Z,1011.36
2019-01-29T07:43:46.757Z,1011.36
2019-01-29T07:44:46.785Z,1011.32
2019-01-29T07:45:46.208Z,1011.36
2019-01-29T07:46:46.883Z,1011.38
2019-01-29T07:47:46.289Z,1011.37
2019-01-29T07:48:46.914Z,1011.38
2019-01-29T07:49:46.449Z,1011.39
2019-01-29T07:50:46.614Z,1011.43
2019-01-29T07:51:46.452Z,1011.38
2019-01-29T07:52:46.382Z,1011.38
2019-01-29T07:53:46.756Z,1011.43
2019-01-29T07:54:51.602Z,1011.4
2019-01-29T07:55:46.646Z,1011.37
2019-01-29T07:56:47.225Z,1011.37
2019-01-29T07:57:46.677Z,1011.37
2019-01-29T07:58:46.964Z,1011.4
2019-01-29T07:59:46.608Z,1011.39
2019-01-29T08:00:46.786Z,1011.4
2019-01-29T08:01:47.711Z,1011.4
2019-01-29T08:02:46.542Z,1011.4
2019-01-29T08:03:47.014Z,1011.37
2019-01-29T08:04:47.626Z,1011.39
2019-01-29T08:05:47.018Z,1011.38
2019-01-29T08:06:46.534Z,1011.38
2019-01-29T08:07:47.040Z,1011.4
2019-01-29T08:08:46.357Z,1011.39
2019-01-29T08:09:46.750Z,1011.36
2019-01-29T08:10:46.666Z,1011.39
2019-01-29T08:11:46.829Z,1011.39
2019-01-29T08:12:46.508Z,1011.38
2019-01-29T08:13:46.619Z,1011.4
2019-01-29T08:14:46.313Z,1011.37
2019-01-29T08:15:46.688Z,1011.39
2019-01-29T08:16:46.691Z,1011.39
2019-01-29T08:17:46.348Z,1011.43
2019-01-29T08:18:46.817Z,1011.38
2019-01-29T08:19:46.620Z,1011.39
2019-01-29T08:20:46.727Z,1011.42
2019-01-29T08:21:46.731Z,1011.4
2019-01-29T08:22:46.537Z,1011.42
2019-01-29T08:23:46.337Z,1011.39
2019-01-29T08:25:02.161Z,1011.42
2019-01-29T08:25:48.371Z,1011.41
2019-01-29T08:26:46.869Z,1011.43
2019-01-29T08:27:46.361Z,1011.44
2019-01-29T08:28:46.264Z,1011.4
2019-01-29T08:29:46.611Z,1011.41
2019-01-29T08:30:46.340Z,1011.39
2019-01-29T08:31:48.297Z,1011.41
2019-01-29T08:32:46.812Z,1011.41
2019-01-29T08:33:46.192Z,1011.44
2019-01-29T08:34:46.431Z,1011.41
2019-01-29T08:35:46.549Z,1011.42
2019-01-29T08:36:46.635Z,1011.42
2019-01-29T08:37:47.046Z,1011.44
2019-01-29T08:38:47.162Z,1011.44
2019-01-29T08:39:46.605Z,1011.4
2019-01-29T08:40:46.401Z,1011.41
2019-01-29T08:41:46.673Z,1011.43
2019-01-29T08:42:46.412Z,1011.43
2019-01-29T08:43:46.490Z,1011.44
2019-01-29T08:44:46.696Z,1011.44
2019-01-29T08:45:46.294Z,1011.45
2019-01-29T08:46:46.238Z,1011.43
2019-01-29T08:47:46.254Z,1011.42
2019-01-29T08:48:46.204Z,1011.48
2019-01-29T08:49:47.032Z,1011.44
2019-01-29T08:50:46.308Z,1011.45
2019-01-29T08:51:46.757Z,1011.49
2019-01-29T08:52:46.456Z,1011.45
2019-01-29T08:53:46.256Z,1011.46
2019-01-29T08:54:46.402Z,1011.46
2019-01-29T08:55:46.395Z,1011.46
2019-01-29T08:56:46.241Z,1011.5
2019-01-29T08:57:46.391Z,1011.46
2019-01-29T08:58:46.457Z,1011.48
2019-01-29T08:59:46.496Z,1011.44
2019-01-29T09:00:46.792Z,1011.45
2019-01-29T09:01:46.487Z,1011.47
2019-01-29T09:02:48.304Z,1011.5
2019-01-29T09:03:46.251Z,1011.48
2019-01-29T09:04:47.015Z,1011.48
2019-01-29T09:05:46.684Z,1011.44
2019-01-29T09:06:46.674Z,1011.47
2019-01-29T09:07:46.425Z,1011.45
2019-01-29T09:08:46.324Z,1011.43
2019-01-29T09:09:46.312Z,1011.42
2019-01-29T09:10:46.675Z,1011.37
2019-01-29T09:11:46.903Z,1011.39
2019-01-29T09:12:46.446Z,1011.35
2019-01-29T09:13:46.654Z,1011.35
2019-01-29T09:14:46.495Z,1011.3
2019-01-29T09:15:46.770Z,1011.27
2019-01-29T09:16:46.919Z,1011.26
2019-01-29T09:17:46.632Z,1011.2
2019-01-29T09:18:46.423Z,1011.2
2019-01-29T09:19:47.051Z,1011.17
2019-01-29T09:20:46.659Z,1011.19
2019-01-29T09:21:46.285Z,1011.17
2019-01-29T09:22:46.970Z,1011.14
2019-01-29T09:23:46.460Z,1011.12
2019-01-29T09:24:46.662Z,1011.12
2019-01-29T09:25:46.775Z,1011.14
2019-01-29T09:26:46.894Z,1011.09
2019-01-29T09:27:46.412Z,1011.15
2019-01-29T09:28:46.698Z,1011.11
2019-01-29T09:29:46.286Z,1011.1
2019-01-29T09:30:46.460Z,1011.05
2019-01-29T09:31:46.715Z,1011.06
2019-01-29T09:32:46.950Z,1011.05
2019-01-29T09:33:47.298Z,1011.05
2019-01-29T09:34:46.848Z,1011.04
2019-01-29T09:35:46.883Z,1011.01
2019-01-29T09:36:46.778Z,1011
2019-01-29T09:37:46.700Z,1010.98
2019-01-29T09:38:46.297Z,1011
2019-01-29T09:39:46.428Z,1010.94
2019-01-29T09:40:48.397Z,1010.95
2019-01-29T09:41:46.701Z,1010.94
2019-01-29T09:42:47.320Z,1010.97
2019-01-29T09:43:46.501Z,1010.97
2019-01-29T09:44:48.235Z,1010.96
2019-01-29T09:45:46.391Z,1010.93
2019-01-29T09:46:48.065Z,1010.93
2019-01-29T09:47:46.193Z,1010.94
2019-01-29T09:48:46.953Z,1010.88
2019-01-29T09:49:46.213Z,1010.89
2019-01-29T09:50:46.463Z,1010.91
2019-01-29T09:51:46.518Z,1010.9
2019-01-29T09:52:46.332Z,1010.94
2019-01-29T09:53:46.521Z,1010.92
2019-01-29T09:54:46.792Z,1010.97
2019-01-29T09:55:46.484Z,1010.96
2019-01-29T09:56:46.535Z,1010.97
2019-01-29T09:57:46.859Z,1010.95
2019-01-29T09:58:46.586Z,1010.94
2019-01-29T09:59:46.412Z,1010.92
2019-01-29T10:00:47.043Z,1010.92
2019-01-29T10:01:48.074Z,1010.93
2019-01-29T10:02:46.752Z,1010.91
2019-01-29T10:03:46.320Z,1010.92
2019-01-29T10:04:46.590Z,1010.88
2019-01-29T10:05:46.240Z,1010.91
2019-01-29T10:06:46.566Z,1010.88
2019-01-29T10:07:46.280Z,1010.89
2019-01-29T10:08:48.328Z,1010.86
2019-01-29T10:09:46.692Z,1010.87
2019-01-29T10:10:46.402Z,1010.86
2019-01-29T10:11:46.817Z,1010.85
2019-01-29T10:12:46.578Z,1010.86
2019-01-29T10:13:46.438Z,1010.84
2019-01-29T10:14:47.162Z,1010.85
2019-01-29T10:15:46.658Z,1010.82
2019-01-29T10:16:46.447Z,1010.8
2019-01-29T10:17:46.404Z,1010.81
2019-01-29T10:18:46.984Z,1010.78
2019-01-29T10:19:46.281Z,1010.77
2019-01-29T10:20:46.831Z,1010.73
2019-01-29T10:21:46.314Z,1010.73
2019-01-29T10:22:46.393Z,1010.74
2019-01-29T10:23:46.511Z,1010.7
2019-01-29T10:24:47.316Z,1010.69
2019-01-29T10:25:46.947Z,1010.65
2019-01-29T10:26:47.768Z,1010.63
2019-01-29T10:27:46.417Z,1010.6
2019-01-29T10:28:46.805Z,1010.59
2019-01-29T10:29:47.051Z,1010.59
2019-01-29T10:30:46.261Z,1010.59
2019-01-29T10:31:46.315Z,1010.59
2019-01-29T10:32:46.669Z,1010.52
2019-01-29T10:33:46.640Z,1010.52
2019-01-29T10:34:46.468Z,1010.47
2019-01-29T10:35:46.317Z,1010.53
2019-01-29T10:36:46.545Z,1010.52
2019-01-29T10:37:46.594Z,1010.51
2019-01-29T10:38:46.641Z,1010.45
2019-01-29T10:39:46.926Z,1010.43
2019-01-29T10:40:47.116Z,1010.41
2019-01-29T10:41:46.364Z,1010.39
2019-01-29T10:42:48.271Z,1010.39
2019-01-29T10:43:47.973Z,1010.36
2019-01-29T10:44:46.536Z,1010.36
2019-01-29T10:45:46.656Z,1010.32
2019-01-29T10:46:46.499Z,1010.32
2019-01-29T10:47:46.658Z,1010.31
2019-01-29T10:48:46.390Z,1010.29
2019-01-29T10:49:47.235Z,1010.27
2019-01-29T10:50:46.230Z,1010.23
2019-01-29T10:51:46.447Z,1010.23
2019-01-29T10:52:46.507Z,1010.23
2019-01-29T10:53:46.794Z,1010.19
2019-01-29T10:54:46.642Z,1010.14
2019-01-29T10:55:47.908Z,1010.15
2019-01-29T10:56:47.472Z,1010.14
2019-01-29T10:57:46.312Z,1010.1
2019-01-29T10:58:46.758Z,1010.11
2019-01-29T10:59:46.408Z,1010.08
2019-01-29T11:00:46.310Z,1010.07
2019-01-29T11:01:46.386Z,1010.07
2019-01-29T11:02:46.685Z,1010.02
2019-01-29T11:03:46.185Z,1009.99
2019-01-29T11:04:49.379Z,1010
2019-01-29T11:05:47.296Z,1009.95
2019-01-29T11:06:47.301Z,1010
2019-01-29T11:07:47.164Z,1009.94
2019-01-29T11:08:46.211Z,1009.91
2019-01-29T11:09:48.651Z,1009.9
2019-01-29T11:10:46.759Z,1009.87
2019-01-29T11:11:47.012Z,1009.89
2019-01-29T11:12:46.990Z,1009.88
2019-01-29T11:13:46.180Z,1009.81
2019-01-29T11:14:46.470Z,1009.82
2019-01-29T11:15:46.619Z,1009.79
2019-01-29T11:16:46.295Z,1009.81
2019-01-29T11:17:46.317Z,1009.73
2019-01-29T11:18:46.444Z,1009.74
2019-01-29T11:19:47.528Z,1009.73
2019-01-29T11:20:47.740Z,1009.71
2019-01-29T11:21:46.232Z,1009.67
2019-01-29T11:22:46.363Z,1009.66
2019-01-29T11:23:46.384Z,1009.67
2019-01-29T11:24:46.359Z,1009.67
2019-01-29T11:25:56.305Z,1009.64
2019-01-29T11:26:46.476Z,1009.61
2019-01-29T11:27:46.747Z,1009.61
2019-01-29T11:28:46.991Z,1009.63
2019-01-29T11:29:47.041Z,1009.56
2019-01-29T11:30:46.277Z,1009.54
2019-01-29T11:31:47.336Z,1009.51
2019-01-29T11:32:46.427Z,1009.45
2019-01-29T11:33:48.403Z,1009.47
2019-01-29T11:34:46.375Z,1009.42
2019-01-29T11:35:46.842Z,1009.4
2019-01-29T11:36:47.285Z,1009.41
2019-01-29T11:37:47.060Z,1009.39
2019-01-29T11:38:46.141Z,1009.39
2019-01-29T11:39:46.435Z,1009.39
2019-01-29T11:40:46.598Z,1009.37
2019-01-29T11:41:46.473Z,1009.34
2019-01-29T11:42:47.015Z,1009.32
2019-01-29T11:43:46.792Z,1009.31
2019-01-29T11:44:46.298Z,1009.31
2019-01-29T11:45:46.806Z,1009.34
2019-01-29T11:46:47.111Z,1009.32
2019-01-29T11:47:46.317Z,1009.32
2019-01-29T11:48:46.676Z,1009.23
2019-01-29T11:49:46.529Z,1009.28
2019-01-29T11:50:46.431Z,1009.25
2019-01-29T11:51:47.017Z,1009.17
2019-01-29T11:52:46.399Z,1009.13
2019-01-29T11:53:46.751Z,1009.1
2019-01-29T11:54:47.434Z,1009.08
2019-01-29T11:55:46.335Z,1009.07
2019-01-29T11:56:47.005Z,1009.03
2019-01-29T11:57:47.184Z,1009.05
2019-01-29T11:58:48.148Z,1009.04
2019-01-29T11:59:46.701Z,1009.07
2019-01-29T12:00:46.188Z,1009.04
2019-01-29T12:01:46.452Z,1009.08
2019-01-29T12:02:46.367Z,1009
2019-01-29T12:03:46.542Z,1009.02
2019-01-29T12:04:46.250Z,1009.02
2019-01-29T12:05:46.757Z,1009
2019-01-29T12:06:46.183Z,1008.96
2019-01-29T12:07:46.301Z,1008.95
2019-01-29T12:08:46.805Z,1008.9
2019-01-29T12:09:46.685Z,1008.9